createdAt,value
2022-08-25T00:01:32.279Z,100657.31
2022-08-25T00:04:01.932Z,100656.47
2022-08-25T00:06:31.742Z,100652.13
2022-08-25T00:09:00.441Z,100654.19
2022-08-25T00:11:32.413Z,100657.25
2022-08-25T00:14:03.828Z,100662.97
2022-08-25T00:16:32.845Z,100656.97
2022-08-25T00:19:03.391Z,100659.66
2022-08-25T00:21:32.747Z,100654.28
2022-08-25T00:24:02.242Z,100654.47
2022-08-25T00:26:31.254Z,100653.66
2022-08-25T00:29:02.141Z,100645.59
2022-08-25T00:31:38.389Z,100651.56
2022-08-25T00:34:12.234Z,100650.53
2022-08-25T00:36:44.520Z,100644.13
2022-08-25T00:39:12.982Z,100648.03
2022-08-25T00:41:43.224Z,100647.41
2022-08-25T00:44:17.385Z,100648.41
2022-08-25T00:46:47.844Z,100651.34
2022-08-25T00:49:25.109Z,100653.84
2022-08-25T00:52:01.311Z,100654.41
2022-08-25T00:54:33.396Z,100651.88
2022-08-25T00:57:02.442Z,100649.19
2022-08-25T00:59:31.426Z,100646.69
2022-08-25T01:02:00.678Z,100649.53
2022-08-25T01:04:28.883Z,100649.53
2022-08-25T01:06:59.670Z,100658.56
2022-08-25T01:09:29.702Z,100656.56
2022-08-25T01:11:57.917Z,100644.75
2022-08-25T01:14:27.909Z,100651.69
2022-08-25T01:16:58.063Z,100648.47
2022-08-25T01:19:27.128Z,100648.22
2022-08-25T01:21:56.962Z,100645.63
2022-08-25T01:24:31.306Z,100642.59
2022-08-25T01:26:59.691Z,100644.91
2022-08-25T01:29:27.738Z,100638.47
2022-08-25T01:31:58.788Z,100648.63
2022-08-25T01:34:28.760Z,100641.59
2022-08-25T01:36:59.730Z,100646.06
2022-08-25T01:39:30.085Z,100638.59
2022-08-25T01:42:18.777Z,100646.56
2022-08-25T01:44:49.677Z,100643.59
2022-08-25T01:47:17.832Z,100648.66
2022-08-25T01:49:46.274Z,100648.22
2022-08-25T01:52:20.340Z,100653.97
2022-08-25T01:54:49.858Z,100654.78
2022-08-25T01:57:18.017Z,100658.88
2022-08-25T01:59:46.345Z,100654.25
2022-08-25T02:02:14.240Z,100651.56
2022-08-25T02:04:44.361Z,100656.00
2022-08-25T02:07:12.878Z,100649.72
2022-08-25T02:09:42.199Z,100655.47
2022-08-25T02:12:10.194Z,100651.66
2022-08-25T02:14:38.320Z,100654.53
2022-08-25T02:17:07.681Z,100657.75
2022-08-25T02:19:35.675Z,100651.56
2022-08-25T02:22:04.051Z,100651.94
2022-08-25T02:24:34.874Z,100650.28
2022-08-25T02:27:06.755Z,100644.56
2022-08-25T02:29:34.830Z,100655.00
2022-08-25T02:32:02.977Z,100653.50
2022-08-25T02:34:31.277Z,100655.56
2022-08-25T02:36:59.150Z,100650.38
2022-08-25T02:39:27.337Z,100654.06
2022-08-25T02:41:55.478Z,100651.38
2022-08-25T02:44:24.946Z,100650.38
2022-08-25T02:46:52.913Z,100652.97
2022-08-25T02:49:20.791Z,100654.53
2022-08-25T02:51:48.783Z,100654.06
2022-08-25T02:54:17.268Z,100655.56
2022-08-25T02:56:45.167Z,100649.19
2022-08-25T02:59:13.135Z,100651.56
2022-08-25T03:01:42.647Z,100651.88
2022-08-25T03:04:11.713Z,100648.22
2022-08-25T03:06:40.957Z,100650.22
2022-08-25T03:09:09.241Z,100651.97
2022-08-25T03:11:38.275Z,100647.53
2022-08-25T03:14:07.086Z,100654.06
2022-08-25T03:16:35.080Z,100645.09
2022-08-25T03:19:05.610Z,100642.44
2022-08-25T03:21:33.804Z,100639.56
2022-08-25T03:24:01.914Z,100638.34
2022-08-25T03:26:47.246Z,100636.69
2022-08-25T03:29:15.379Z,100634.22
2022-08-25T03:31:44.679Z,100630.41
2022-08-25T03:34:16.744Z,100625.41
2022-08-25T03:36:45.373Z,100627.63
2022-08-25T03:39:13.489Z,100627.16
2022-08-25T03:41:41.546Z,100630.84
2022-08-25T03:44:12.172Z,100637.56
2022-08-25T03:46:44.269Z,100631.88
2022-08-25T03:49:16.756Z,100634.53
2022-08-25T03:51:48.677Z,100641.09
2022-08-25T03:54:18.013Z,100631.19
2022-08-25T03:56:46.422Z,100639.44
2022-08-25T03:59:14.843Z,100632.69
2022-08-25T04:01:44.831Z,100639.91
2022-08-25T04:04:16.202Z,100632.59
2022-08-25T04:06:45.308Z,100636.91
2022-08-25T04:09:13.524Z,100634.78
2022-08-25T04:11:42.602Z,100641.03
2022-08-25T04:14:13.801Z,100648.78
2022-08-25T04:16:46.366Z,100647.81
2022-08-25T04:19:15.685Z,100640.50
2022-08-25T04:21:43.878Z,100632.00
2022-08-25T04:24:13.253Z,100624.63
2022-08-25T04:26:44.769Z,100619.44
2022-08-25T04:29:14.410Z,100613.41
2022-08-25T04:31:46.805Z,100620.09
2022-08-25T04:34:30.130Z,100612.09
2022-08-25T04:36:59.944Z,100619.63
2022-08-25T04:39:27.850Z,100629.53
2022-08-25T04:41:55.744Z,100629.34
2022-08-25T04:44:23.670Z,100619.47
2022-08-25T04:46:51.605Z,100624.66
2022-08-25T04:49:20.837Z,100631.19
2022-08-25T04:51:48.733Z,100623.81
2022-08-25T04:54:21.525Z,100629.13
2022-08-25T04:56:54.523Z,100621.88
2022-08-25T04:59:29.520Z,100625.66
2022-08-25T05:02:02.038Z,100630.69
2022-08-25T05:04:32.465Z,100641.50
2022-08-25T05:07:01.055Z,100636.28
2022-08-25T05:09:32.312Z,100634.06
2022-08-25T05:12:03.872Z,100644.72
2022-08-25T05:14:32.173Z,100641.09
2022-08-25T05:17:00.585Z,100636.69
2022-08-25T05:19:28.792Z,100631.00
2022-08-25T05:21:58.295Z,100630.63
2022-08-25T05:24:27.857Z,100618.16
2022-08-25T05:26:56.206Z,100627.28
2022-08-25T05:29:24.150Z,100629.28
2022-08-25T05:31:52.162Z,100629.41
2022-08-25T05:34:20.960Z,100631.88
2022-08-25T05:36:49.593Z,100640.03
2022-08-25T05:39:18.826Z,100628.94
2022-08-25T05:41:46.915Z,100633.56
2022-08-25T05:44:19.094Z,100635.50
2022-08-25T05:46:49.363Z,100626.50
2022-08-25T05:49:17.345Z,100630.69
2022-08-25T05:51:45.322Z,100625.78
2022-08-25T05:54:13.238Z,100620.50
2022-08-25T05:56:42.610Z,100610.69
2022-08-25T05:59:10.509Z,100614.66
2022-08-25T06:01:55.972Z,100607.34
2022-08-25T06:04:24.301Z,100604.72
2022-08-25T06:06:53.872Z,100603.88
2022-08-25T06:09:22.117Z,100608.16
2022-08-25T06:11:54.717Z,100610.72
2022-08-25T06:14:24.388Z,100617.00
2022-08-25T06:16:52.860Z,100607.16
2022-08-25T06:19:23.192Z,100607.25
2022-08-25T06:21:55.050Z,100601.09
2022-08-25T06:24:23.146Z,100601.97
2022-08-25T06:26:52.530Z,100602.06
2022-08-25T06:29:23.063Z,100603.31
2022-08-25T06:31:51.423Z,100599.69
2022-08-25T06:34:19.713Z,100602.22
2022-08-25T06:36:52.089Z,100601.31
2022-08-25T06:39:20.004Z,100595.97
2022-08-25T06:41:53.757Z,100603.88
2022-08-25T06:44:22.668Z,100595.19
2022-08-25T06:46:55.280Z,100601.00
2022-08-25T06:49:23.357Z,100590.53
2022-08-25T06:51:51.279Z,100584.34
2022-08-25T06:54:19.316Z,100592.03
2022-08-25T06:56:47.398Z,100584.22
2022-08-25T06:59:19.475Z,100580.94
2022-08-25T07:01:49.720Z,100590.91
2022-08-25T07:04:20.545Z,100590.13
2022-08-25T07:06:48.912Z,100596.56
2022-08-25T07:09:16.822Z,100605.34
2022-08-25T07:11:46.256Z,100598.75
2022-08-25T07:14:16.131Z,100604.38
2022-08-25T07:16:49.435Z,100602.31
2022-08-25T07:19:20.747Z,100607.75
2022-08-25T07:21:54.059Z,100598.44
2022-08-25T07:24:23.226Z,100602.00
2022-08-25T07:26:51.376Z,100595.81
2022-08-25T07:29:32.270Z,100596.63
2022-08-25T07:32:05.904Z,100590.44
2022-08-25T07:34:52.817Z,100582.41
2022-08-25T07:40:12.822Z,100584.53
2022-08-25T07:42:41.897Z,100581.03
2022-08-25T07:45:17.386Z,100579.16
2022-08-25T07:47:53.724Z,100574.19
2022-08-25T07:50:22.488Z,100588.28
2022-08-25T07:53:04.762Z,100584.53
2022-08-25T07:55:32.901Z,100577.50
2022-08-25T07:58:05.432Z,100575.22
2022-08-25T08:00:36.682Z,100572.75
2022-08-25T08:03:12.920Z,100573.53
2022-08-25T08:05:48.613Z,100574.16
2022-08-25T08:08:17.389Z,100582.25
2022-08-25T08:11:04.132Z,100580.97
2022-08-25T08:13:39.311Z,100579.91
2022-08-25T08:16:10.560Z,100573.25
2022-08-25T08:18:41.497Z,100572.81
2022-08-25T08:21:13.625Z,100570.09
2022-08-25T08:23:48.463Z,100568.19
2022-08-25T08:26:17.955Z,100575.22
2022-08-25T08:28:52.151Z,100577.06
2022-08-25T08:31:21.265Z,100575.34
2022-08-25T08:33:51.670Z,100574.50
2022-08-25T08:36:20.038Z,100573.63
2022-08-25T08:38:48.554Z,100572.78
2022-08-25T08:42:12.435Z,100570.84
2022-08-25T08:45:02.595Z,100565.22
2022-08-25T08:47:44.245Z,100554.41
2022-08-25T08:50:30.757Z,100559.53
2022-08-25T08:53:06.777Z,100553.41
2022-08-25T08:55:40.084Z,100549.59
2022-08-25T08:58:16.990Z,100546.03
2022-08-25T09:00:52.371Z,100552.59
2022-08-25T09:03:30.553Z,100554.34
2022-08-25T09:06:06.837Z,100551.97
2022-08-25T09:08:35.224Z,100549.59
2022-08-25T09:11:10.267Z,100544.31
2022-08-25T09:13:51.765Z,100546.72
2022-08-25T09:16:46.647Z,100539.34
2022-08-25T09:19:31.376Z,100537.78
2022-08-25T09:22:35.520Z,100541.41
2022-08-25T09:25:08.348Z,100528.31
2022-08-25T09:27:47.192Z,100532.16
2022-08-25T09:30:17.718Z,100530.34
2022-08-25T09:32:49.036Z,100530.72
2022-08-25T09:35:23.867Z,100529.59
2022-08-25T09:38:03.794Z,100518.09
2022-08-25T09:40:35.320Z,100517.41
2022-08-25T09:43:10.262Z,100514.84
2022-08-25T09:45:43.522Z,100510.38
2022-08-25T09:48:39.804Z,100502.72
2022-08-25T09:51:18.842Z,100490.75
2022-08-25T09:53:54.924Z,100492.53
2022-08-25T09:56:25.269Z,100486.84
2022-08-25T09:58:55.018Z,100484.03
2022-08-25T10:01:24.820Z,100480.06
2022-08-25T10:04:01.705Z,100483.66
2022-08-25T10:06:34.660Z,100472.44
2022-08-25T10:09:06.979Z,100458.97
2022-08-25T10:11:41.612Z,100460.88
2022-08-25T10:14:27.645Z,100457.25
2022-08-25T10:17:16.124Z,100453.69
2022-08-25T10:19:44.586Z,100452.47
2022-08-25T10:22:24.812Z,100452.06
2022-08-25T10:24:55.512Z,100449.19
2022-08-25T10:27:33.876Z,100448.69
2022-08-25T10:30:11.432Z,100447.38
2022-08-25T10:32:54.952Z,100438.97
2022-08-25T10:35:29.757Z,100440.50
2022-08-25T10:38:07.422Z,100433.50
2022-08-25T10:40:45.632Z,100435.53
2022-08-25T10:43:25.685Z,100425.91
2022-08-25T10:46:01.087Z,100425.97
2022-08-25T10:48:57.115Z,100414.03
2022-08-25T10:51:47.860Z,100415.00
2022-08-25T10:54:33.343Z,100413.28
2022-08-25T10:57:13.077Z,100416.47
2022-08-25T11:00:02.045Z,100408.50
2022-08-25T11:02:57.171Z,100400.25
2022-08-25T11:05:29.359Z,100401.34
2022-08-25T11:08:06.088Z,100395.06
2022-08-25T11:10:41.627Z,100389.59
2022-08-25T11:13:17.910Z,100386.38
2022-08-25T11:16:15.486Z,100393.72
2022-08-25T11:18:48.722Z,100391.75
2022-08-25T11:21:24.643Z,100389.25
2022-08-25T11:24:05.797Z,100379.31
2022-08-25T11:26:38.360Z,100382.97
2022-08-25T11:29:16.445Z,100382.81
2022-08-25T11:31:52.789Z,100391.03
2022-08-25T11:34:22.647Z,100381.59
2022-08-25T11:36:54.154Z,100372.44
2022-08-25T11:39:40.824Z,100371.84
2022-08-25T11:42:22.634Z,100370.22
2022-08-25T11:45:07.690Z,100377.91
2022-08-25T11:47:49.874Z,100369.19
2022-08-25T11:50:30.267Z,100368.69
2022-08-25T11:53:02.964Z,100376.16
2022-08-25T11:55:48.475Z,100367.06
2022-08-25T11:58:30.688Z,100360.56
2022-08-25T12:01:02.040Z,100363.59
2022-08-25T12:03:53.092Z,100358.34
2022-08-25T12:06:29.389Z,100361.81
2022-08-25T12:09:17.570Z,100364.63
2022-08-25T12:11:49.136Z,100362.88
2022-08-25T12:14:37.843Z,100365.44
2022-08-25T12:17:23.022Z,100346.94
2022-08-25T12:19:58.079Z,100359.00
2022-08-25T12:22:55.135Z,100349.31
2022-08-25T12:25:46.829Z,100351.50
2022-08-25T12:28:39.086Z,100354.56
2022-08-25T12:31:18.676Z,100347.44
2022-08-25T12:34:01.913Z,100350.47
2022-08-25T12:36:33.361Z,100341.72
2022-08-25T12:39:24.600Z,100344.13
2022-08-25T12:41:57.377Z,100348.44
2022-08-25T12:44:44.106Z,100335.03
2022-08-25T12:47:27.076Z,100334.56
2022-08-25T12:50:26.783Z,100344.44
2022-08-25T12:52:57.158Z,100335.94
2022-08-25T12:55:27.417Z,100343.59
2022-08-25T12:58:00.836Z,100339.53
2022-08-25T13:00:34.217Z,100337.94
2022-08-25T13:03:31.034Z,100335.19
2022-08-25T13:06:22.099Z,100329.72
2022-08-25T13:09:17.664Z,100331.91
2022-08-25T13:11:54.379Z,100321.47
2022-08-25T13:14:34.363Z,100316.53
2022-08-25T13:17:09.547Z,100316.53
2022-08-25T13:19:38.355Z,100317.34
2022-08-25T13:22:16.504Z,100306.09
2022-08-25T13:24:50.588Z,100301.41
2022-08-25T13:27:25.654Z,100307.69
2022-08-25T13:29:56.600Z,100294.00
2022-08-25T13:32:32.432Z,100291.59
2022-08-25T13:35:14.133Z,100286.44
2022-08-25T13:37:43.701Z,100286.34
2022-08-25T13:40:17.847Z,100278.13
2022-08-25T13:42:54.336Z,100275.44
2022-08-25T13:45:26.059Z,100277.50
2022-08-25T13:48:07.621Z,100277.78
2022-08-25T13:50:44.228Z,100279.19
2022-08-25T13:53:25.102Z,100283.13
2022-08-25T13:55:56.941Z,100275.13
2022-08-25T13:58:39.157Z,100278.56
2022-08-25T14:01:32.273Z,100286.00
2022-08-25T14:04:31.869Z,100275.47
2022-08-25T14:07:15.483Z,100268.47
2022-08-25T14:09:53.852Z,100272.00
2022-08-25T14:12:29.347Z,100262.97
2022-08-25T14:15:04.190Z,100268.25
2022-08-25T14:17:39.364Z,100267.03
2022-08-25T14:20:18.186Z,100264.22
2022-08-25T14:22:48.768Z,100259.25
2022-08-25T14:25:18.349Z,100254.84
2022-08-25T14:28:06.839Z,100259.03
2022-08-25T14:30:38.278Z,100246.34
2022-08-25T14:33:06.827Z,100245.91
2022-08-25T14:35:35.386Z,100237.75
2022-08-25T14:38:06.422Z,100241.94
2022-08-25T14:40:35.900Z,100242.41
2022-08-25T14:43:03.987Z,100239.94
2022-08-25T14:45:32.795Z,100241.31
2022-08-25T14:48:10.627Z,100238.38
2022-08-25T14:50:41.139Z,100232.91
2022-08-25T14:53:11.498Z,100226.31
2022-08-25T14:55:40.758Z,100219.50
2022-08-25T14:58:09.173Z,100221.56
2022-08-25T15:00:40.887Z,100219.13
2022-08-25T15:03:10.431Z,100210.13
2022-08-25T15:05:38.526Z,100220.66
2022-08-25T15:08:27.985Z,100209.63
2022-08-25T15:10:59.436Z,100206.56
2022-08-25T15:13:28.221Z,100203.91
2022-08-25T15:15:59.478Z,100199.22
2022-08-25T15:18:30.415Z,100196.00
2022-08-25T15:20:58.400Z,100202.44
2022-08-25T15:23:26.338Z,100189.28
2022-08-25T15:25:55.998Z,100201.41
2022-08-25T15:28:25.343Z,100190.28
2022-08-25T15:30:54.590Z,100200.09
2022-08-25T15:33:23.898Z,100182.88
2022-08-25T15:35:52.841Z,100189.88
2022-08-25T15:38:20.826Z,100184.31
2022-08-25T15:40:48.839Z,100180.69
2022-08-25T15:43:16.799Z,100177.66
2022-08-25T15:45:46.472Z,100178.91
2022-08-25T15:48:14.583Z,100180.38
2022-08-25T15:50:45.117Z,100182.69
2022-08-25T15:53:13.229Z,100173.03
2022-08-25T15:55:42.449Z,100169.28
2022-08-25T15:58:12.216Z,100180.66
2022-08-25T16:00:40.129Z,100176.63
2022-08-25T16:03:11.739Z,100169.44
2022-08-25T16:05:48.064Z,100174.03
2022-08-25T16:08:19.082Z,100169.91
2022-08-25T16:10:47.877Z,100166.50
2022-08-25T16:13:18.620Z,100161.03
2022-08-25T16:15:54.080Z,100171.50
2022-08-25T16:18:24.345Z,100163.56
2022-08-25T16:20:53.403Z,100163.44
2022-08-25T16:23:23.774Z,100163.53
2022-08-25T16:25:51.863Z,100175.66
2022-08-25T16:28:20.712Z,100169.56
2022-08-25T16:30:53.147Z,100162.94
2022-08-25T16:33:21.249Z,100154.34
2022-08-25T16:35:50.685Z,100156.97
2022-08-25T16:38:18.926Z,100155.56
2022-08-25T16:40:47.579Z,100149.09
2022-08-25T16:43:17.587Z,100155.13
2022-08-25T16:45:46.171Z,100151.53
2022-08-25T16:48:14.486Z,100149.13
2022-08-25T16:50:45.177Z,100159.53
2022-08-25T16:53:32.355Z,100147.16
2022-08-25T16:56:04.454Z,100152.84
2022-08-25T16:58:34.130Z,100147.00
2022-08-25T17:01:07.251Z,100146.63
2022-08-25T17:03:38.533Z,100146.91
2022-08-25T17:06:14.044Z,100148.78
2022-08-25T17:08:43.612Z,100150.66
2022-08-25T17:11:14.827Z,100144.47
2022-08-25T17:13:45.825Z,100142.56
2022-08-25T17:16:15.350Z,100140.00
2022-08-25T17:18:47.921Z,100147.56
2022-08-25T17:21:24.340Z,100151.91
2022-08-25T17:23:55.410Z,100147.31
2022-08-25T17:26:27.828Z,100145.78
2022-08-25T17:29:00.445Z,100148.03
2022-08-25T17:31:30.937Z,100150.88
2022-08-25T17:33:59.476Z,100144.56
2022-08-25T17:36:27.689Z,100153.81
2022-08-25T17:38:57.254Z,100141.94
2022-08-25T17:41:25.951Z,100150.00
2022-08-25T17:43:53.937Z,100149.31
2022-08-25T17:46:22.060Z,100148.84
2022-08-25T17:48:50.090Z,100139.56
2022-08-25T17:51:18.458Z,100148.34
2022-08-25T17:53:46.783Z,100143.94
2022-08-25T17:56:19.115Z,100143.66
2022-08-25T17:58:48.141Z,100145.53
2022-08-25T18:01:17.763Z,100152.81
2022-08-25T18:03:46.216Z,100151.97
2022-08-25T18:06:15.190Z,100154.56
2022-08-25T18:08:45.268Z,100153.94
2022-08-25T18:11:24.507Z,100149.44
2022-08-25T18:13:53.686Z,100149.53
2022-08-25T18:16:22.107Z,100159.75
2022-08-25T18:18:51.490Z,100153.34
2022-08-25T18:21:22.576Z,100157.53
2022-08-25T18:23:50.534Z,100160.09
2022-08-25T18:26:25.522Z,100154.78
2022-08-25T18:28:53.690Z,100160.59
2022-08-25T18:31:25.164Z,100161.22
2022-08-25T18:33:53.179Z,100167.03
2022-08-25T18:36:21.553Z,100163.31
2022-08-25T18:39:07.159Z,100168.78
2022-08-25T18:41:39.357Z,100168.88
2022-08-25T18:44:08.333Z,100167.41
2022-08-25T18:46:39.335Z,100172.47
2022-08-25T18:49:07.363Z,100162.84
2022-08-25T18:51:36.869Z,100167.53
2022-08-25T18:54:06.362Z,100166.19
2022-08-25T18:56:35.978Z,100166.28
2022-08-25T18:59:05.412Z,100168.84
2022-08-25T19:01:37.409Z,100174.91
2022-08-25T19:04:05.733Z,100172.81
2022-08-25T19:06:33.633Z,100178.28
2022-08-25T19:09:02.080Z,100176.06
2022-08-25T19:11:33.041Z,100179.47
2022-08-25T19:14:04.789Z,100179.97
2022-08-25T19:16:43.774Z,100179.16
2022-08-25T19:19:16.448Z,100178.81
2022-08-25T19:21:45.356Z,100182.41
2022-08-25T19:24:17.343Z,100187.72
2022-08-25T19:26:45.585Z,100178.66
2022-08-25T19:29:18.244Z,100180.13
2022-08-25T19:31:48.280Z,100185.31
2022-08-25T19:34:22.506Z,100183.09
2022-08-25T19:36:50.880Z,100183.78
2022-08-25T19:39:21.480Z,100187.44
2022-08-25T19:41:52.208Z,100177.44
2022-08-25T19:44:23.097Z,100175.94
2022-08-25T19:46:51.356Z,100177.47
2022-08-25T19:49:26.106Z,100174.19
2022-08-25T19:51:56.554Z,100182.44
2022-08-25T19:54:29.885Z,100185.72
2022-08-25T19:56:59.156Z,100185.03
2022-08-25T19:59:40.640Z,100191.78
2022-08-25T20:02:16.011Z,100195.47
2022-08-25T20:04:49.762Z,100188.50
2022-08-25T20:07:19.308Z,100191.56
2022-08-25T20:09:48.518Z,100187.31
2022-08-25T20:12:20.184Z,100185.56
2022-08-25T20:14:51.312Z,100187.28
2022-08-25T20:17:23.726Z,100185.75
2022-08-25T20:19:55.465Z,100183.97
2022-08-25T20:22:26.276Z,100183.81
2022-08-25T20:24:57.819Z,100191.19
2022-08-25T20:27:32.195Z,100188.34
2022-08-25T20:30:02.573Z,100194.53
2022-08-25T20:32:33.064Z,100189.91
2022-08-25T20:35:01.991Z,100192.13
2022-08-25T20:37:30.526Z,100197.16
2022-08-25T20:40:00.941Z,100200.28
2022-08-25T20:42:31.058Z,100193.94
2022-08-25T20:44:59.958Z,100191.91
2022-08-25T20:47:30.296Z,100196.94
2022-08-25T20:50:04.544Z,100198.41
2022-08-25T20:52:35.072Z,100200.72
2022-08-25T20:55:06.358Z,100195.78
2022-08-25T20:57:35.595Z,100197.44
2022-08-25T21:00:07.541Z,100202.00
2022-08-25T21:02:36.955Z,100202.00
2022-08-25T21:05:05.769Z,100206.13
2022-08-25T21:07:35.668Z,100201.56
2022-08-25T21:10:06.199Z,100204.69
2022-08-25T21:12:39.025Z,100205.75
2022-08-25T21:15:11.314Z,100210.09
2022-08-25T21:17:41.057Z,100204.84
2022-08-25T21:20:10.685Z,100201.09
2022-08-25T21:22:39.777Z,100197.34
2022-08-25T21:25:09.352Z,100200.50
2022-08-25T21:27:37.475Z,100193.09
2022-08-25T21:30:11.267Z,100199.97
2022-08-25T21:32:40.612Z,100203.44
2022-08-25T21:35:22.486Z,100206.19
2022-08-25T21:37:53.344Z,100205.69
2022-08-25T21:40:22.734Z,100203.00
2022-08-25T21:42:53.477Z,100200.50
2022-08-25T21:45:22.127Z,100204.31
2022-08-25T21:47:51.894Z,100199.00
2022-08-25T21:50:21.087Z,100203.41
2022-08-25T21:52:54.629Z,100200.72
2022-08-25T21:55:25.650Z,100200.59
2022-08-25T21:57:54.692Z,100204.09
2022-08-25T22:00:23.346Z,100205.53
2022-08-25T22:02:53.523Z,100203.06
2022-08-25T22:05:21.640Z,100198.03
2022-08-25T22:07:49.824Z,100202.63
2022-08-25T22:10:21.163Z,100199.97
2022-08-25T22:12:53.800Z,100205.06
2022-08-25T22:15:23.326Z,100198.69
2022-08-25T22:17:54.051Z,100193.13
2022-08-25T22:20:22.326Z,100200.38
2022-08-25T22:22:50.326Z,100198.72
2022-08-25T22:25:18.782Z,100206.22
2022-08-25T22:27:47.523Z,100203.34
2022-08-25T22:30:24.846Z,100206.88
2022-08-25T22:32:59.689Z,100190.53
2022-08-25T22:35:33.186Z,100199.28
2022-08-25T22:38:01.342Z,100196.78
2022-08-25T22:40:30.842Z,100198.28
2022-08-25T22:42:58.935Z,100198.69
2022-08-25T22:45:29.473Z,100204.53
2022-08-25T22:47:59.299Z,100197.53
2022-08-25T22:50:31.259Z,100207.28
2022-08-25T22:53:00.513Z,100203.59
2022-08-25T22:55:29.176Z,100203.41
2022-08-25T22:57:57.293Z,100207.38
2022-08-25T23:00:25.517Z,100203.47
2022-08-25T23:02:54.819Z,100191.06
2022-08-25T23:05:24.720Z,100196.31
2022-08-25T23:07:52.829Z,100190.50
2022-08-25T23:10:22.808Z,100193.03
2022-08-25T23:12:51.566Z,100188.69
2022-08-25T23:15:21.767Z,100189.75
2022-08-25T23:17:49.980Z,100192.25
2022-08-25T23:20:36.226Z,100192.09
2022-08-25T23:23:15.036Z,100193.53
2022-08-25T23:25:42.987Z,100192.50
2022-08-25T23:28:14.003Z,100190.84
2022-08-25T23:30:44.956Z,100191.06
2022-08-25T23:33:25.250Z,100181.75
2022-08-25T23:35:59.501Z,100190.47
2022-08-25T23:38:29.070Z,100189.44
2022-08-25T23:40:57.305Z,100187.56
2022-08-25T23:43:27.726Z,100186.16
2022-08-25T23:45:56.727Z,100190.28
2022-08-25T23:48:25.175Z,100188.44
2022-08-25T23:50:54.195Z,100180.38
2022-08-25T23:53:22.507Z,100179.97
2022-08-25T23:55:55.589Z,100176.06
2022-08-25T23:58:26.904Z,100180.44
